Baton Rouge — 2CZZ7 — position and weather

sailwx.info

Track history (hours):
 
Tides and Currents Weather Stations Pressure Air Temp Water Temp Dewpoint Dewpoint Depression Visibility Wind Speed Wind Dir Waves Ship Positions

Baton Rouge

Last reported at 2016-Jun-30 18:08 UTC. Time now 2016-Jul-02 09:33 UTC.
Position N 43°44' E 007°25'.

Length 62 m; draft 3.7 m.

Type: Pleasure craft. MMSI: 235077185.

Date/timePositionNaut miles runAvg speedWind from/ knotsBaromVisibWave heightAir tempDewpointWater temp
2016-Jun-30 18:08N 43°44' E 007°25'0 0.0
2016-Jun-30 17:26N 43°44' E 007°25'0 0.0
2016-Jun-28 18:28N 43°44' E 007°25'0 0.0
2016-Jun-28 17:28N 43°44' E 007°25'0 0.0
2016-Jun-28 16:22N 43°44' E 007°25'0 0.0
2016-Jun-28 15:16N 43°44' E 007°25'0 0.0
2016-Jun-28 14:16N 43°44' E 007°25'0 0.0
2016-Jun-28 12:25N 43°44' E 007°25'2 2.3
2016-Jun-28 11:29N 43°42' E 007°24'2 2.0
2016-Jun-28 10:24N 43°41' E 007°21'0 0.0
2016-Jun-28 09:21N 43°41' E 007°21'0 0.0
2016-Jun-28 07:13N 43°41' E 007°21'0 0.0
2016-Jun-28 06:30N 43°41' E 007°21'2 0.2
2016-Jun-27 20:09N 43°43' E 007°22'0 0.0
2016-Jun-27 19:33N 43°43' E 007°22'0 0.0
2016-Jun-27 03:09N 43°43' E 007°22'0 0.0
2016-Jun-27 01:21N 43°43' E 007°22'0 0.0
2016-Jun-27 00:33N 43°43' E 007°22'0 0.0
2016-Jun-26 23:33N 43°43' E 007°22'0 0.0
2016-Jun-26 22:27N 43°43' E 007°22'0 0.0
2016-Jun-26 21:33N 43°43' E 007°22'0 0.0
2016-Jun-26 20:33N 43°43' E 007°22'0 0.0
2016-Jun-26 19:03N 43°43' E 007°22'0 0.0
2016-Jun-26 15:33N 43°43' E 007°22'0 0.0
2016-Jun-26 14:15N 43°43' E 007°22'0 0.0
2016-Jun-26 13:33N 43°43' E 007°22'4 0.2
2016-Jun-25 22:16N 43°44' E 007°27'912.8
2016-Jun-25 21:32N 43°36' E 007°31'1110.9
2016-Jun-25 20:33N 43°26' E 007°25'1412.8
2016-Jun-25 19:29N 43°17' E 007°11'22 3.5
2016-Jun-25 13:09N 43°13' E 006°40'0 0.0
2016-Jun-25 12:33N 43°13' E 006°40'5 4.6
2016-Jun-25 11:33N 43°17' E 006°41'20 0.5
2016-Jun-23 16:33N 43°29' E 007°03'4 4.0
2016-Jun-23 15:28N 43°33' E 007°07'0 0.0
2016-Jun-23 14:28N 43°33' E 007°07'0 0.0
2016-Jun-23 13:28N 43°33' E 007°07'0 0.0
2016-Jun-23 12:31N 43°33' E 007°07'0 0.0
2016-Jun-23 11:31N 43°33' E 007°07'0 0.0
2016-Jun-23 10:28N 43°33' E 007°07'3 3.0
2016-Jun-23 09:33N 43°32' E 007°03'0 0.0
2016-Jun-23 08:32N 43°32' E 007°04'0 0.0
2016-Jun-23 07:29N 43°32' E 007°04'0 0.0
2016-Jun-23 05:32N 43°32' E 007°04'0 0.0
2016-Jun-23 04:32N 43°32' E 007°04'0 0.0
2016-Jun-23 03:32N 43°32' E 007°04'0 0.0
2016-Jun-23 02:32N 43°32' E 007°04'0 0.0
2016-Jun-23 01:32N 43°32' E 007°04'0 0.0
2016-Jun-23 00:32N 43°32' E 007°04'0 0.0
2016-Jun-22 23:29N 43°32' E 007°04'0 0.0
2016-Jun-22 22:23N 43°32' E 007°04'0 0.0
2016-Jun-22 21:29N 43°32' E 007°04'0 0.0
2016-Jun-22 20:29N 43°32' E 007°04'0 0.0
2016-Jun-22 19:29N 43°32' E 007°04'0 0.0
2016-Jun-22 18:29N 43°32' E 007°04'0 0.0
2016-Jun-22 17:32N 43°32' E 007°04'0 0.0
2016-Jun-22 16:23N 43°32' E 007°04'0 0.0
2016-Jun-22 15:32N 43°32' E 007°04'0 0.0
2016-Jun-22 14:17N 43°32' E 007°04'0 0.3
2016-Jun-22 13:33N 43°32' E 007°04'2 2.4
2016-Jun-22 12:33N 43°33' E 007°01'0 0.0
2016-Jun-22 11:30N 43°33' E 007°01'0 0.0
2016-Jun-22 10:18N 43°33' E 007°01'3 3.8
2016-Jun-22 09:34N 43°30' E 007°02'1313.2
2016-Jun-22 08:33N 43°38' E 007°16'4 3.4
2016-Jun-22 07:24N 43°42' E 007°19'0 0.0
2016-Jun-22 05:30N 43°42' E 007°19'0 0.0
2016-Jun-22 04:24N 43°42' E 007°19'0 0.0
2016-Jun-22 03:09N 43°42' E 007°19'0 0.0
2016-Jun-22 02:30N 43°42' E 007°19'0 0.0
2016-Jun-22 01:30N 43°42' E 007°19'0 0.0
2016-Jun-22 00:30N 43°42' E 007°19'0 0.0
2016-Jun-21 23:30N 43°42' E 007°19'0 0.0
2016-Jun-21 22:30N 43°42' E 007°19'0 0.0
2016-Jun-21 19:30N 43°42' E 007°19'0 0.0
2016-Jun-21 18:24N 43°42' E 007°19'0 0.0
2016-Jun-21 17:33N 43°42' E 007°19'1 1.2
2016-Jun-21 16:29N 43°42' E 007°21'0 0.0
2016-Jun-21 15:20N 43°42' E 007°21'0 0.0
2016-Jun-21 14:29N 43°42' E 007°21'0 0.0
2016-Jun-21 13:29N 43°42' E 007°21'0 0.0
2016-Jun-21 12:17N 43°42' E 007°21'2 1.7
2016-Jun-21 11:20N 43°40' E 007°20'3 3.1
2016-Jun-21 10:29N 43°42' E 007°17'0 0.0
2016-Jun-21 09:17N 43°42' E 007°17'0 0.0
2016-Jun-21 08:29N 43°42' E 007°17'0 0.0
2016-Jun-21 07:29N 43°42' E 007°17'0 0.0
2016-Jun-21 04:29N 43°42' E 007°17'0 0.0
2016-Jun-21 03:29N 43°42' E 007°17'0 0.0
2016-Jun-21 02:29N 43°42' E 007°17'0 0.0
2016-Jun-21 01:23N 43°42' E 007°17'0 0.0
2016-Jun-21 00:29N 43°42' E 007°17'0 0.0
2016-Jun-20 23:29N 43°42' E 007°17'0 0.0
2016-Jun-20 22:29N 43°42' E 007°17'0 0.0
2016-Jun-20 21:29N 43°42' E 007°17'0 0.0
2016-Jun-20 20:29N 43°42' E 007°17'0 0.0
2016-Jun-20 19:29N 43°42' E 007°17'0 0.0
2016-Jun-20 18:29N 43°42' E 007°17'  
Track history (hours):
 
Tides and Currents Weather Stations Pressure Air Temp Water Temp Dewpoint Dewpoint Depression Visibility Wind Speed Wind Dir Waves Ship Positions

Baton Rouge

Last reported at 2016-Jun-30 18:08 UTC. Time now 2016-Jul-02 09:33 UTC.
Position N 43°44' E 007°25'.

Length 62 m; draft 3.7 m.

Type: Pleasure craft. MMSI: 235077185.

Date/timePositionNaut miles runAvg speedWind from/ knotsBaromVisibWave heightAir tempDewpointWater temp
2016-Jun-30 18:08N 43°44' E 007°25'0 0.0
2016-Jun-30 17:26N 43°44' E 007°25'0 0.0
2016-Jun-28 18:28N 43°44' E 007°25'0 0.0
2016-Jun-28 17:28N 43°44' E 007°25'0 0.0
2016-Jun-28 16:22N 43°44' E 007°25'0 0.0
2016-Jun-28 15:16N 43°44' E 007°25'0 0.0
2016-Jun-28 14:16N 43°44' E 007°25'0 0.0
2016-Jun-28 12:25N 43°44' E 007°25'2 2.3
2016-Jun-28 11:29N 43°42' E 007°24'2 2.0
2016-Jun-28 10:24N 43°41' E 007°21'0 0.0
2016-Jun-28 09:21N 43°41' E 007°21'0 0.0
2016-Jun-28 07:13N 43°41' E 007°21'0 0.0
2016-Jun-28 06:30N 43°41' E 007°21'2 0.2
2016-Jun-27 20:09N 43°43' E 007°22'0 0.0
2016-Jun-27 19:33N 43°43' E 007°22'0 0.0
2016-Jun-27 03:09N 43°43' E 007°22'0 0.0
2016-Jun-27 01:21N 43°43' E 007°22'0 0.0
2016-Jun-27 00:33N 43°43' E 007°22'0 0.0
2016-Jun-26 23:33N 43°43' E 007°22'0 0.0
2016-Jun-26 22:27N 43°43' E 007°22'0 0.0
2016-Jun-26 21:33N 43°43' E 007°22'0 0.0
2016-Jun-26 20:33N 43°43' E 007°22'0 0.0
2016-Jun-26 19:03N 43°43' E 007°22'0 0.0
2016-Jun-26 15:33N 43°43' E 007°22'0 0.0
2016-Jun-26 14:15N 43°43' E 007°22'0 0.0
2016-Jun-26 13:33N 43°43' E 007°22'4 0.2
2016-Jun-25 22:16N 43°44' E 007°27'912.8
2016-Jun-25 21:32N 43°36' E 007°31'1110.9
2016-Jun-25 20:33N 43°26' E 007°25'1412.8
2016-Jun-25 19:29N 43°17' E 007°11'22 3.5
2016-Jun-25 13:09N 43°13' E 006°40'0 0.0
2016-Jun-25 12:33N 43°13' E 006°40'5 4.6
2016-Jun-25 11:33N 43°17' E 006°41'20 0.5
2016-Jun-23 16:33N 43°29' E 007°03'4 4.0
2016-Jun-23 15:28N 43°33' E 007°07'0 0.0
2016-Jun-23 14:28N 43°33' E 007°07'0 0.0
2016-Jun-23 13:28N 43°33' E 007°07'0 0.0
2016-Jun-23 12:31N 43°33' E 007°07'0 0.0
2016-Jun-23 11:31N 43°33' E 007°07'0 0.0
2016-Jun-23 10:28N 43°33' E 007°07'3 3.0
2016-Jun-23 09:33N 43°32' E 007°03'0 0.0
2016-Jun-23 08:32N 43°32' E 007°04'0 0.0
2016-Jun-23 07:29N 43°32' E 007°04'0 0.0
2016-Jun-23 05:32N 43°32' E 007°04'0 0.0
2016-Jun-23 04:32N 43°32' E 007°04'0 0.0
2016-Jun-23 03:32N 43°32' E 007°04'0 0.0
2016-Jun-23 02:32N 43°32' E 007°04'0 0.0
2016-Jun-23 01:32N 43°32' E 007°04'0 0.0
2016-Jun-23 00:32N 43°32' E 007°04'0 0.0
2016-Jun-22 23:29N 43°32' E 007°04'0 0.0
2016-Jun-22 22:23N 43°32' E 007°04'0 0.0
2016-Jun-22 21:29N 43°32' E 007°04'0 0.0
2016-Jun-22 20:29N 43°32' E 007°04'0 0.0
2016-Jun-22 19:29N 43°32' E 007°04'0 0.0
2016-Jun-22 18:29N 43°32' E 007°04'0 0.0
2016-Jun-22 17:32N 43°32' E 007°04'0 0.0
2016-Jun-22 16:23N 43°32' E 007°04'0 0.0
2016-Jun-22 15:32N 43°32' E 007°04'0 0.0
2016-Jun-22 14:17N 43°32' E 007°04'0 0.3
2016-Jun-22 13:33N 43°32' E 007°04'2 2.4
2016-Jun-22 12:33N 43°33' E 007°01'0 0.0
2016-Jun-22 11:30N 43°33' E 007°01'0 0.0
2016-Jun-22 10:18N 43°33' E 007°01'3 3.8
2016-Jun-22 09:34N 43°30' E 007°02'1313.2
2016-Jun-22 08:33N 43°38' E 007°16'4 3.4
2016-Jun-22 07:24N 43°42' E 007°19'0 0.0
2016-Jun-22 05:30N 43°42' E 007°19'0 0.0
2016-Jun-22 04:24N 43°42' E 007°19'0 0.0
2016-Jun-22 03:09N 43°42' E 007°19'0 0.0
2016-Jun-22 02:30N 43°42' E 007°19'0 0.0
2016-Jun-22 01:30N 43°42' E 007°19'0 0.0
2016-Jun-22 00:30N 43°42' E 007°19'0 0.0
2016-Jun-21 23:30N 43°42' E 007°19'0 0.0
2016-Jun-21 22:30N 43°42' E 007°19'0 0.0
2016-Jun-21 19:30N 43°42' E 007°19'0 0.0
2016-Jun-21 18:24N 43°42' E 007°19'0 0.0
2016-Jun-21 17:33N 43°42' E 007°19'1 1.2
2016-Jun-21 16:29N 43°42' E 007°21'0 0.0
2016-Jun-21 15:20N 43°42' E 007°21'0 0.0
2016-Jun-21 14:29N 43°42' E 007°21'0 0.0
2016-Jun-21 13:29N 43°42' E 007°21'0 0.0
2016-Jun-21 12:17N 43°42' E 007°21'2 1.7
2016-Jun-21 11:20N 43°40' E 007°20'3 3.1
2016-Jun-21 10:29N 43°42' E 007°17'0 0.0
2016-Jun-21 09:17N 43°42' E 007°17'0 0.0
2016-Jun-21 08:29N 43°42' E 007°17'0 0.0
2016-Jun-21 07:29N 43°42' E 007°17'0 0.0
2016-Jun-21 04:29N 43°42' E 007°17'0 0.0
2016-Jun-21 03:29N 43°42' E 007°17'0 0.0
2016-Jun-21 02:29N 43°42' E 007°17'0 0.0
2016-Jun-21 01:23N 43°42' E 007°17'0 0.0
2016-Jun-21 00:29N 43°42' E 007°17'0 0.0
2016-Jun-20 23:29N 43°42' E 007°17'0 0.0
2016-Jun-20 22:29N 43°42' E 007°17'0 0.0
2016-Jun-20 21:29N 43°42' E 007°17'0 0.0
2016-Jun-20 20:29N 43°42' E 007°17'0 0.0
2016-Jun-20 19:29N 43°42' E 007°17'0 0.0
2016-Jun-20 18:29N 43°42' E 007°17'  

Dump ship's entire track history